sensor_id;sensor_type;location;lat;lon;timestamp;P1;durP1;ratioP1;P2;durP2;ratioP2
10110;SDS011;5095;49.796;9.934;2023-04-30T00:00:00;9.47;;;7.37;;
10110;SDS011;5095;49.796;9.934;2023-04-30T00:02:26;8.40;;;6.03;;
10110;SDS011;5095;49.796;9.934;2023-04-30T00:04:52;10.43;;;6.00;;
10110;SDS011;5095;49.796;9.934;2023-04-30T00:07:19;7.93;;;5.70;;
10110;SDS011;5095;49.796;9.934;2023-04-30T00:09:45;7.57;;;5.53;;
10110;SDS011;5095;49.796;9.934;2023-04-30T00:12:11;8.83;;;6.67;;
10110;SDS011;5095;49.796;9.934;2023-04-30T00:14:37;6.83;;;5.03;;
10110;SDS011;5095;49.796;9.934;2023-04-30T00:17:03;7.57;;;5.57;;
10110;SDS011;5095;49.796;9.934;2023-04-30T00:19:29;8.70;;;5.50;;
10110;SDS011;5095;49.796;9.934;2023-04-30T00:21:55;6.30;;;5.30;;
10110;SDS011;5095;49.796;9.934;2023-04-30T00:24:21;7.90;;;5.93;;
10110;SDS011;5095;49.796;9.934;2023-04-30T00:26:47;11.07;;;6.13;;
10110;SDS011;5095;49.796;9.934;2023-04-30T00:29:13;9.33;;;5.60;;
10110;SDS011;5095;49.796;9.934;2023-04-30T00:31:39;7.30;;;5.30;;
10110;SDS011;5095;49.796;9.934;2023-04-30T00:34:05;8.50;;;5.80;;
10110;SDS011;5095;49.796;9.934;2023-04-30T00:36:31;8.60;;;5.67;;
10110;SDS011;5095;49.796;9.934;2023-04-30T00:38:57;9.27;;;6.10;;
10110;SDS011;5095;49.796;9.934;2023-04-30T00:41:23;8.83;;;5.97;;
10110;SDS011;5095;49.796;9.934;2023-04-30T00:43:50;9.27;;;6.50;;
10110;SDS011;5095;49.796;9.934;2023-04-30T00:46:16;9.40;;;6.23;;
10110;SDS011;5095;49.796;9.934;2023-04-30T00:48:42;10.13;;;6.30;;
10110;SDS011;5095;49.796;9.934;2023-04-30T00:51:08;10.93;;;6.10;;
10110;SDS011;5095;49.796;9.934;2023-04-30T00:53:34;9.30;;;6.17;;
10110;SDS011;5095;49.796;9.934;2023-04-30T00:56:01;8.70;;;6.17;;
10110;SDS011;5095;49.796;9.934;2023-04-30T00:58:27;8.20;;;6.30;;
10110;SDS011;5095;49.796;9.934;2023-04-30T01:00:54;8.13;;;6.17;;
10110;SDS011;5095;49.796;9.934;2023-04-30T01:03:20;8.00;;;6.50;;
10110;SDS011;5095;49.796;9.934;2023-04-30T01:05:46;8.77;;;6.40;;
10110;SDS011;5095;49.796;9.934;2023-04-30T01:08:13;9.60;;;5.93;;
10110;SDS011;5095;49.796;9.934;2023-04-30T01:10:40;7.97;;;6.30;;
10110;SDS011;5095;49.796;9.934;2023-04-30T01:13:09;9.00;;;6.47;;
10110;SDS011;5095;49.796;9.934;2023-04-30T01:20:41;8.63;;;6.57;;
10110;SDS011;5095;49.796;9.934;2023-04-30T01:28:17;9.50;;;6.80;;
10110;SDS011;5095;49.796;9.934;2023-04-30T01:30:44;9.13;;;7.27;;
10110;SDS011;5095;49.796;9.934;2023-04-30T01:33:13;8.10;;;7.07;;
10110;SDS011;5095;49.796;9.934;2023-04-30T01:36:04;7.87;;;6.40;;
10110;SDS011;5095;49.796;9.934;2023-04-30T01:43:54;8.17;;;6.57;;
10110;SDS011;5095;49.796;9.934;2023-04-30T01:46:25;9.17;;;6.73;;
10110;SDS011;5095;49.796;9.934;2023-04-30T01:49:16;9.43;;;6.50;;
10110;SDS011;5095;49.796;9.934;2023-04-30T01:51:44;12.83;;;7.47;;
10110;SDS011;5095;49.796;9.934;2023-04-30T01:54:16;8.53;;;6.90;;
10110;SDS011;5095;49.796;9.934;2023-04-30T01:56:46;10.87;;;6.80;;
10110;SDS011;5095;49.796;9.934;2023-04-30T01:59:15;10.37;;;6.60;;
10110;SDS011;5095;49.796;9.934;2023-04-30T02:01:42;8.80;;;7.27;;
10110;SDS011;5095;49.796;9.934;2023-04-30T02:04:08;8.40;;;6.60;;
10110;SDS011;5095;49.796;9.934;2023-04-30T02:06:34;8.77;;;7.10;;
10110;SDS011;5095;49.796;9.934;2023-04-30T02:09:00;8.90;;;7.73;;
10110;SDS011;5095;49.796;9.934;2023-04-30T02:11:27;10.47;;;6.83;;
10110;SDS011;5095;49.796;9.934;2023-04-30T02:13:53;9.87;;;7.23;;
10110;SDS011;5095;49.796;9.934;2023-04-30T02:16:19;7.70;;;6.50;;
10110;SDS011;5095;49.796;9.934;2023-04-30T02:18:46;9.20;;;7.10;;
10110;SDS011;5095;49.796;9.934;2023-04-30T02:21:12;9.27;;;7.20;;
10110;SDS011;5095;49.796;9.934;2023-04-30T02:23:41;9.40;;;7.30;;
10110;SDS011;5095;49.796;9.934;2023-04-30T02:26:07;8.83;;;7.03;;
10110;SDS011;5095;49.796;9.934;2023-04-30T02:28:33;9.53;;;7.47;;
10110;SDS011;5095;49.796;9.934;2023-04-30T02:31:00;9.77;;;7.50;;
10110;SDS011;5095;49.796;9.934;2023-04-30T02:33:26;8.47;;;7.13;;
10110;SDS011;5095;49.796;9.934;2023-04-30T02:35:52;11.33;;;7.70;;
10110;SDS011;5095;49.796;9.934;2023-04-30T02:38:19;10.57;;;7.40;;
10110;SDS011;5095;49.796;9.934;2023-04-30T02:40:45;10.00;;;7.13;;
10110;SDS011;5095;49.796;9.934;2023-04-30T02:43:11;9.77;;;7.20;;
10110;SDS011;5095;49.796;9.934;2023-04-30T02:45:37;9.40;;;7.10;;
10110;SDS011;5095;49.796;9.934;2023-04-30T02:50:57;11.50;;;7.37;;
10110;SDS011;5095;49.796;9.934;2023-04-30T02:53:23;10.03;;;7.43;;
10110;SDS011;5095;49.796;9.934;2023-04-30T02:55:49;9.50;;;7.40;;
10110;SDS011;5095;49.796;9.934;2023-04-30T02:58:15;7.97;;;7.17;;
10110;SDS011;5095;49.796;9.934;2023-04-30T03:00:41;9.77;;;7.50;;
10110;SDS011;5095;49.796;9.934;2023-04-30T03:03:07;10.30;;;7.50;;
10110;SDS011;5095;49.796;9.934;2023-04-30T03:05:33;8.87;;;6.60;;
10110;SDS011;5095;49.796;9.934;2023-04-30T03:07:59;9.13;;;7.33;;
10110;SDS011;5095;49.796;9.934;2023-04-30T03:10:25;8.70;;;7.20;;
10110;SDS011;5095;49.796;9.934;2023-04-30T03:12:51;9.13;;;7.20;;
10110;SDS011;5095;49.796;9.934;2023-04-30T03:15:18;8.97;;;6.90;;
10110;SDS011;5095;49.796;9.934;2023-04-30T03:17:44;11.90;;;7.20;;
10110;SDS011;5095;49.796;9.934;2023-04-30T03:20:10;10.30;;;7.27;;
10110;SDS011;5095;49.796;9.934;2023-04-30T03:22:36;8.70;;;6.93;;
10110;SDS011;5095;49.796;9.934;2023-04-30T03:25:03;8.90;;;6.83;;
10110;SDS011;5095;49.796;9.934;2023-04-30T03:27:29;9.50;;;7.10;;
10110;SDS011;5095;49.796;9.934;2023-04-30T03:29:55;9.53;;;7.23;;
10110;SDS011;5095;49.796;9.934;2023-04-30T03:32:21;9.80;;;7.87;;
10110;SDS011;5095;49.796;9.934;2023-04-30T03:34:47;10.23;;;7.20;;
10110;SDS011;5095;49.796;9.934;2023-04-30T03:37:13;10.27;;;7.50;;
10110;SDS011;5095;49.796;9.934;2023-04-30T03:39:39;10.13;;;7.27;;
10110;SDS011;5095;49.796;9.934;2023-04-30T03:42:05;8.47;;;6.90;;
10110;SDS011;5095;49.796;9.934;2023-04-30T03:44:31;10.70;;;7.27;;
10110;SDS011;5095;49.796;9.934;2023-04-30T03:46:57;8.80;;;7.37;;
10110;SDS011;5095;49.796;9.934;2023-04-30T03:49:23;10.80;;;7.53;;
10110;SDS011;5095;49.796;9.934;2023-04-30T03:51:49;9.77;;;7.37;;
10110;SDS011;5095;49.796;9.934;2023-04-30T03:54:15;10.03;;;7.33;;
10110;SDS011;5095;49.796;9.934;2023-04-30T03:56:41;11.97;;;7.30;;
10110;SDS011;5095;49.796;9.934;2023-04-30T03:59:08;10.30;;;7.87;;
10110;SDS011;5095;49.796;9.934;2023-04-30T04:01:34;11.93;;;7.57;;
10110;SDS011;5095;49.796;9.934;2023-04-30T04:04:00;9.60;;;7.57;;
10110;SDS011;5095;49.796;9.934;2023-04-30T04:06:26;9.63;;;7.60;;
10110;SDS011;5095;49.796;9.934;2023-04-30T04:08:52;11.67;;;7.77;;
10110;SDS011;5095;49.796;9.934;2023-04-30T04:11:19;11.53;;;8.07;;
10110;SDS011;5095;49.796;9.934;2023-04-30T04:13:45;9.80;;;7.47;;
10110;SDS011;5095;49.796;9.934;2023-04-30T04:16:11;11.53;;;8.50;;
10110;SDS011;5095;49.796;9.934;2023-04-30T04:18:37;10.67;;;8.47;;
10110;SDS011;5095;49.796;9.934;2023-04-30T04:21:03;10.67;;;7.57;;
10110;SDS011;5095;49.796;9.934;2023-04-30T04:23:29;9.87;;;8.33;;
10110;SDS011;5095;49.796;9.934;2023-04-30T04:25:55;12.60;;;7.43;;
10110;SDS011;5095;49.796;9.934;2023-04-30T04:28:21;9.60;;;8.03;;
10110;SDS011;5095;49.796;9.934;2023-04-30T04:30:47;10.90;;;8.10;;
10110;SDS011;5095;49.796;9.934;2023-04-30T04:33:13;10.57;;;7.97;;
10110;SDS011;5095;49.796;9.934;2023-04-30T04:35:40;10.13;;;7.57;;
10110;SDS011;5095;49.796;9.934;2023-04-30T04:38:06;11.23;;;8.50;;
10110;SDS011;5095;49.796;9.934;2023-04-30T04:40:32;10.37;;;7.53;;
10110;SDS011;5095;49.796;9.934;2023-04-30T04:42:59;9.07;;;7.63;;
10110;SDS011;5095;49.796;9.934;2023-04-30T04:45:25;11.13;;;7.77;;
10110;SDS011;5095;49.796;9.934;2023-04-30T04:47:51;9.70;;;7.67;;
10110;SDS011;5095;49.796;9.934;2023-04-30T04:50:17;9.53;;;7.40;;
10110;SDS011;5095;49.796;9.934;2023-04-30T04:52:43;9.83;;;7.63;;
10110;SDS011;5095;49.796;9.934;2023-04-30T04:55:10;11.37;;;8.33;;
10110;SDS011;5095;49.796;9.934;2023-04-30T04:57:36;10.93;;;7.93;;
10110;SDS011;5095;49.796;9.934;2023-04-30T05:00:02;10.47;;;8.13;;
10110;SDS011;5095;49.796;9.934;2023-04-30T05:02:31;10.03;;;7.57;;
10110;SDS011;5095;49.796;9.934;2023-04-30T05:04:57;11.83;;;7.73;;
10110;SDS011;5095;49.796;9.934;2023-04-30T05:07:24;10.53;;;7.30;;
10110;SDS011;5095;49.796;9.934;2023-04-30T05:09:50;9.63;;;7.30;;
10110;SDS011;5095;49.796;9.934;2023-04-30T05:12:16;12.93;;;8.57;;
10110;SDS011;5095;49.796;9.934;2023-04-30T05:14:42;10.63;;;8.10;;
10110;SDS011;5095;49.796;9.934;2023-04-30T05:17:09;11.07;;;8.37;;
10110;SDS011;5095;49.796;9.934;2023-04-30T05:19:35;8.77;;;7.57;;
10110;SDS011;5095;49.796;9.934;2023-04-30T05:22:01;11.07;;;7.37;;
10110;SDS011;5095;49.796;9.934;2023-04-30T05:24:28;9.57;;;7.80;;
10110;SDS011;5095;49.796;9.934;2023-04-30T05:26:54;10.07;;;8.03;;
10110;SDS011;5095;49.796;9.934;2023-04-30T05:29:20;9.83;;;7.63;;
10110;SDS011;5095;49.796;9.934;2023-04-30T05:31:46;8.80;;;7.50;;
10110;SDS011;5095;49.796;9.934;2023-04-30T05:34:12;9.43;;;8.03;;
10110;SDS011;5095;49.796;9.934;2023-04-30T05:36:38;11.00;;;7.63;;
10110;SDS011;5095;49.796;9.934;2023-04-30T05:39:04;9.73;;;7.63;;
10110;SDS011;5095;49.796;9.934;2023-04-30T05:41:30;10.97;;;8.00;;
10110;SDS011;5095;49.796;9.934;2023-04-30T05:43:56;10.93;;;8.23;;
10110;SDS011;5095;49.796;9.934;2023-04-30T05:46:22;9.50;;;6.60;;
10110;SDS011;5095;49.796;9.934;2023-04-30T05:48:48;9.87;;;7.83;;
10110;SDS011;5095;49.796;9.934;2023-04-30T05:51:14;10.80;;;7.87;;
10110;SDS011;5095;49.796;9.934;2023-04-30T05:53:40;11.23;;;7.77;;
10110;SDS011;5095;49.796;9.934;2023-04-30T05:56:06;9.77;;;8.30;;
10110;SDS011;5095;49.796;9.934;2023-04-30T05:58:32;10.27;;;7.83;;
10110;SDS011;5095;49.796;9.934;2023-04-30T06:00:58;10.43;;;7.47;;
10110;SDS011;5095;49.796;9.934;2023-04-30T06:03:25;11.93;;;8.53;;
10110;SDS011;5095;49.796;9.934;2023-04-30T06:05:51;12.10;;;8.57;;
10110;SDS011;5095;49.796;9.934;2023-04-30T06:08:17;11.60;;;9.03;;
10110;SDS011;5095;49.796;9.934;2023-04-30T06:10:43;10.10;;;6.93;;
10110;SDS011;5095;49.796;9.934;2023-04-30T06:13:09;14.77;;;8.77;;
10110;SDS011;5095;49.796;9.934;2023-04-30T06:15:35;9.67;;;7.27;;
10110;SDS011;5095;49.796;9.934;2023-04-30T06:18:01;11.17;;;7.63;;
10110;SDS011;5095;49.796;9.934;2023-04-30T06:20:27;9.17;;;7.97;;
10110;SDS011;5095;49.796;9.934;2023-04-30T06:22:54;10.83;;;7.70;;
10110;SDS011;5095;49.796;9.934;2023-04-30T06:25:20;9.33;;;7.97;;
10110;SDS011;5095;49.796;9.934;2023-04-30T06:27:46;9.07;;;7.03;;
10110;SDS011;5095;49.796;9.934;2023-04-30T06:30:12;10.90;;;7.40;;
10110;SDS011;5095;49.796;9.934;2023-04-30T06:32:38;7.00;;;5.37;;
10110;SDS011;5095;49.796;9.934;2023-04-30T06:35:05;10.57;;;7.00;;
10110;SDS011;5095;49.796;9.934;2023-04-30T06:37:31;9.57;;;7.40;;
10110;SDS011;5095;49.796;9.934;2023-04-30T06:40:02;9.80;;;7.20;;
10110;SDS011;5095;49.796;9.934;2023-04-30T06:42:28;9.30;;;6.73;;
10110;SDS011;5095;49.796;9.934;2023-04-30T06:44:59;11.33;;;7.30;;
10110;SDS011;5095;49.796;9.934;2023-04-30T06:47:29;8.50;;;7.07;;
10110;SDS011;5095;49.796;9.934;2023-04-30T06:50:00;8.97;;;6.77;;
10110;SDS011;5095;49.796;9.934;2023-04-30T06:52:26;13.20;;;7.93;;
10110;SDS011;5095;49.796;9.934;2023-04-30T06:54:52;8.40;;;6.57;;
10110;SDS011;5095;49.796;9.934;2023-04-30T06:57:18;9.33;;;7.00;;
10110;SDS011;5095;49.796;9.934;2023-04-30T06:59:44;9.00;;;6.37;;
10110;SDS011;5095;49.796;9.934;2023-04-30T07:02:10;7.70;;;6.23;;
10110;SDS011;5095;49.796;9.934;2023-04-30T07:04:36;9.63;;;6.73;;
10110;SDS011;5095;49.796;9.934;2023-04-30T07:07:02;7.27;;;5.90;;
10110;SDS011;5095;49.796;9.934;2023-04-30T07:09:32;12.67;;;6.43;;
10110;SDS011;5095;49.796;9.934;2023-04-30T07:11:58;10.37;;;6.50;;
10110;SDS011;5095;49.796;9.934;2023-04-30T07:14:24;7.47;;;6.10;;
10110;SDS011;5095;49.796;9.934;2023-04-30T07:16:51;7.63;;;5.93;;
10110;SDS011;5095;49.796;9.934;2023-04-30T07:19:17;8.33;;;5.83;;
10110;SDS011;5095;49.796;9.934;2023-04-30T07:21:43;6.60;;;5.10;;
10110;SDS011;5095;49.796;9.934;2023-04-30T07:24:10;7.10;;;5.03;;
10110;SDS011;5095;49.796;9.934;2023-04-30T07:26:36;7.90;;;5.40;;
10110;SDS011;5095;49.796;9.934;2023-04-30T07:29:02;7.53;;;4.90;;
10110;SDS011;5095;49.796;9.934;2023-04-30T07:31:28;8.63;;;5.60;;
10110;SDS011;5095;49.796;9.934;2023-04-30T07:33:54;9.13;;;5.30;;
10110;SDS011;5095;49.796;9.934;2023-04-30T07:36:21;6.70;;;5.20;;
10110;SDS011;5095;49.796;9.934;2023-04-30T07:38:47;6.57;;;4.87;;
10110;SDS011;5095;49.796;9.934;2023-04-30T07:41:13;8.53;;;5.37;;
10110;SDS011;5095;49.796;9.934;2023-04-30T07:43:39;9.40;;;5.27;;
10110;SDS011;5095;49.796;9.934;2023-04-30T07:46:05;6.43;;;4.93;;
10110;SDS011;5095;49.796;9.934;2023-04-30T07:48:31;7.67;;;5.17;;
10110;SDS011;5095;49.796;9.934;2023-04-30T07:50:57;6.27;;;4.23;;
10110;SDS011;5095;49.796;9.934;2023-04-30T07:53:23;6.43;;;4.53;;
10110;SDS011;5095;49.796;9.934;2023-04-30T07:55:49;7.20;;;5.17;;
10110;SDS011;5095;49.796;9.934;2023-04-30T07:58:15;8.07;;;5.00;;
10110;SDS011;5095;49.796;9.934;2023-04-30T08:00:41;7.93;;;4.97;;
10110;SDS011;5095;49.796;9.934;2023-04-30T08:03:07;6.77;;;4.83;;
10110;SDS011;5095;49.796;9.934;2023-04-30T08:05:33;5.13;;;3.83;;
10110;SDS011;5095;49.796;9.934;2023-04-30T08:08:00;6.60;;;4.47;;
10110;SDS011;5095;49.796;9.934;2023-04-30T08:10:26;7.33;;;5.20;;
10110;SDS011;5095;49.796;9.934;2023-04-30T08:12:52;7.27;;;4.70;;
10110;SDS011;5095;49.796;9.934;2023-04-30T08:15:18;7.83;;;4.60;;
10110;SDS011;5095;49.796;9.934;2023-04-30T08:17:47;6.75;;;4.30;;
10110;SDS011;5095;49.796;9.934;2023-04-30T08:20:14;5.13;;;3.60;;
10110;SDS011;5095;49.796;9.934;2023-04-30T08:22:40;7.13;;;4.20;;
10110;SDS011;5095;49.796;9.934;2023-04-30T08:25:06;6.70;;;3.80;;
10110;SDS011;5095;49.796;9.934;2023-04-30T08:27:32;4.00;;;3.00;;
10110;SDS011;5095;49.796;9.934;2023-04-30T08:29:58;2.70;;;2.27;;
10110;SDS011;5095;49.796;9.934;2023-04-30T08:32:24;3.77;;;2.43;;
10110;SDS011;5095;49.796;9.934;2023-04-30T08:34:50;3.13;;;2.03;;
10110;SDS011;5095;49.796;9.934;2023-04-30T08:37:16;3.50;;;2.77;;
10110;SDS011;5095;49.796;9.934;2023-04-30T08:39:42;3.43;;;2.40;;
10110;SDS011;5095;49.796;9.934;2023-04-30T08:42:08;4.27;;;2.30;;
10110;SDS011;5095;49.796;9.934;2023-04-30T08:44:35;2.87;;;2.27;;
10110;SDS011;5095;49.796;9.934;2023-04-30T08:47:07;2.27;;;2.00;;
10110;SDS011;5095;49.796;9.934;2023-04-30T08:49:37;3.23;;;2.20;;
10110;SDS011;5095;49.796;9.934;2023-04-30T08:52:03;6.03;;;4.43;;
10110;SDS011;5095;49.796;9.934;2023-04-30T08:54:30;2.87;;;2.57;;
10110;SDS011;5095;49.796;9.934;2023-04-30T08:56:59;2.43;;;2.00;;
10110;SDS011;5095;49.796;9.934;2023-04-30T08:59:25;5.23;;;2.67;;
10110;SDS011;5095;49.796;9.934;2023-04-30T09:01:51;2.37;;;2.10;;
10110;SDS011;5095;49.796;9.934;2023-04-30T09:04:17;4.60;;;2.80;;
10110;SDS011;5095;49.796;9.934;2023-04-30T09:06:44;4.80;;;2.50;;
10110;SDS011;5095;49.796;9.934;2023-04-30T09:09:14;5.73;;;2.67;;
10110;SDS011;5095;49.796;9.934;2023-04-30T09:11:40;3.60;;;2.50;;
10110;SDS011;5095;49.796;9.934;2023-04-30T09:14:07;3.87;;;2.80;;
10110;SDS011;5095;49.796;9.934;2023-04-30T09:16:46;2.73;;;2.00;;
10110;SDS011;5095;49.796;9.934;2023-04-30T09:19:22;4.43;;;2.77;;
10110;SDS011;5095;49.796;9.934;2023-04-30T09:21:49;3.57;;;2.80;;
10110;SDS011;5095;49.796;9.934;2023-04-30T09:24:15;3.43;;;2.70;;
10110;SDS011;5095;49.796;9.934;2023-04-30T09:26:42;5.33;;;2.93;;
10110;SDS011;5095;49.796;9.934;2023-04-30T09:29:08;4.33;;;2.60;;
10110;SDS011;5095;49.796;9.934;2023-04-30T09:31:35;3.90;;;2.50;;
10110;SDS011;5095;49.796;9.934;2023-04-30T09:34:01;4.63;;;2.30;;
10110;SDS011;5095;49.796;9.934;2023-04-30T09:36:28;4.53;;;2.70;;
10110;SDS011;5095;49.796;9.934;2023-04-30T09:38:55;4.10;;;2.37;;
10110;SDS011;5095;49.796;9.934;2023-04-30T09:41:25;5.43;;;2.90;;
10110;SDS011;5095;49.796;9.934;2023-04-30T09:43:52;3.93;;;2.40;;
10110;SDS011;5095;49.796;9.934;2023-04-30T09:46:18;3.87;;;1.53;;
10110;SDS011;5095;49.796;9.934;2023-04-30T09:48:45;4.13;;;2.13;;
10110;SDS011;5095;49.796;9.934;2023-04-30T09:51:13;3.63;;;2.30;;
10110;SDS011;5095;49.796;9.934;2023-04-30T09:53:42;3.30;;;1.77;;
10110;SDS011;5095;49.796;9.934;2023-04-30T09:56:08;3.00;;;1.93;;
10110;SDS011;5095;49.796;9.934;2023-04-30T09:58:39;3.93;;;2.20;;
10110;SDS011;5095;49.796;9.934;2023-04-30T10:01:09;2.10;;;1.70;;
10110;SDS011;5095;49.796;9.934;2023-04-30T10:03:36;2.07;;;1.70;;
10110;SDS011;5095;49.796;9.934;2023-04-30T10:06:04;2.20;;;1.67;;
10110;SDS011;5095;49.796;9.934;2023-04-30T10:08:32;1.70;;;1.60;;
10110;SDS011;5095;49.796;9.934;2023-04-30T10:11:03;2.03;;;1.87;;
10110;SDS011;5095;49.796;9.934;2023-04-30T10:13:34;4.27;;;2.13;;
10110;SDS011;5095;49.796;9.934;2023-04-30T10:16:19;2.67;;;2.00;;
10110;SDS011;5095;49.796;9.934;2023-04-30T10:18:49;1.63;;;1.53;;
10110;SDS011;5095;49.796;9.934;2023-04-30T10:21:16;1.67;;;1.50;;
10110;SDS011;5095;49.796;9.934;2023-04-30T10:23:43;1.90;;;1.40;;
10110;SDS011;5095;49.796;9.934;2023-04-30T10:26:09;1.97;;;1.77;;
10110;SDS011;5095;49.796;9.934;2023-04-30T10:28:40;2.37;;;1.33;;
10110;SDS011;5095;49.796;9.934;2023-04-30T10:31:07;1.80;;;1.40;;
10110;SDS011;5095;49.796;9.934;2023-04-30T10:36:06;1.53;;;1.37;;
10110;SDS011;5095;49.796;9.934;2023-04-30T10:38:35;1.50;;;1.40;;
10110;SDS011;5095;49.796;9.934;2023-04-30T10:41:04;2.60;;;1.40;;
10110;SDS011;5095;49.796;9.934;2023-04-30T10:43:31;1.20;;;1.10;;
10110;SDS011;5095;49.796;9.934;2023-04-30T10:45:59;3.23;;;1.50;;
10110;SDS011;5095;49.796;9.934;2023-04-30T10:48:25;2.90;;;1.30;;
10110;SDS011;5095;49.796;9.934;2023-04-30T10:50:54;3.57;;;1.87;;
10110;SDS011;5095;49.796;9.934;2023-04-30T10:53:20;2.53;;;1.30;;
10110;SDS011;5095;49.796;9.934;2023-04-30T10:56:00;4.77;;;1.70;;
10110;SDS011;5095;49.796;9.934;2023-04-30T10:58:34;1.30;;;1.20;;
10110;SDS011;5095;49.796;9.934;2023-04-30T11:01:02;4.03;;;1.30;;
10110;SDS011;5095;49.796;9.934;2023-04-30T11:03:28;4.03;;;1.57;;
10110;SDS011;5095;49.796;9.934;2023-04-30T11:05:55;2.60;;;1.47;;
10110;SDS011;5095;49.796;9.934;2023-04-30T11:08:36;1.77;;;1.50;;
10110;SDS011;5095;49.796;9.934;2023-04-30T11:11:03;1.57;;;1.30;;
10110;SDS011;5095;49.796;9.934;2023-04-30T11:13:45;1.50;;;1.20;;
10110;SDS011;5095;49.796;9.934;2023-04-30T11:16:11;1.17;;;1.10;;
10110;SDS011;5095;49.796;9.934;2023-04-30T11:18:44;3.00;;;1.53;;
10110;SDS011;5095;49.796;9.934;2023-04-30T11:21:10;3.73;;;2.10;;
10110;SDS011;5095;49.796;9.934;2023-04-30T11:23:39;1.77;;;1.30;;
10110;SDS011;5095;49.796;9.934;2023-04-30T11:26:07;4.10;;;1.83;;
10110;SDS011;5095;49.796;9.934;2023-04-30T11:28:33;1.60;;;1.50;;
10110;SDS011;5095;49.796;9.934;2023-04-30T11:30:59;1.30;;;1.20;;
10110;SDS011;5095;49.796;9.934;2023-04-30T11:33:30;1.57;;;1.27;;
10110;SDS011;5095;49.796;9.934;2023-04-30T11:35:57;4.43;;;1.20;;
10110;SDS011;5095;49.796;9.934;2023-04-30T11:38:41;1.30;;;1.20;;
10110;SDS011;5095;49.796;9.934;2023-04-30T11:41:10;1.80;;;1.30;;
10110;SDS011;5095;49.796;9.934;2023-04-30T11:43:36;1.50;;;1.03;;
10110;SDS011;5095;49.796;9.934;2023-04-30T11:48:32;3.30;;;1.70;;
10110;SDS011;5095;49.796;9.934;2023-04-30T11:50:58;3.00;;;1.33;;
10110;SDS011;5095;49.796;9.934;2023-04-30T11:53:27;0.90;;;0.90;;
10110;SDS011;5095;49.796;9.934;2023-04-30T11:55:53;1.90;;;1.23;;
10110;SDS011;5095;49.796;9.934;2023-04-30T11:58:19;1.20;;;1.00;;
10110;SDS011;5095;49.796;9.934;2023-04-30T12:00:47;2.03;;;1.30;;
10110;SDS011;5095;49.796;9.934;2023-04-30T12:03:13;1.37;;;1.27;;
10110;SDS011;5095;49.796;9.934;2023-04-30T12:05:41;1.43;;;1.10;;
10110;SDS011;5095;49.796;9.934;2023-04-30T12:08:07;1.10;;;1.00;;
10110;SDS011;5095;49.796;9.934;2023-04-30T12:10:34;1.47;;;1.37;;
10110;SDS011;5095;49.796;9.934;2023-04-30T12:13:00;2.37;;;1.50;;
10110;SDS011;5095;49.796;9.934;2023-04-30T12:15:27;4.43;;;3.13;;
10110;SDS011;5095;49.796;9.934;2023-04-30T12:17:56;2.53;;;1.00;;
10110;SDS011;5095;49.796;9.934;2023-04-30T12:20:24;0.93;;;0.87;;
10110;SDS011;5095;49.796;9.934;2023-04-30T12:22:51;1.73;;;0.90;;
10110;SDS011;5095;49.796;9.934;2023-04-30T12:25:18;2.30;;;0.63;;
10110;SDS011;5095;49.796;9.934;2023-04-30T12:27:44;2.73;;;1.00;;
10110;SDS011;5095;49.796;9.934;2023-04-30T12:30:11;2.33;;;1.03;;
10110;SDS011;5095;49.796;9.934;2023-04-30T12:35:04;2.53;;;0.90;;
10110;SDS011;5095;49.796;9.934;2023-04-30T12:37:30;1.33;;;0.90;;
10110;SDS011;5095;49.796;9.934;2023-04-30T12:39:57;0.73;;;0.67;;
10110;SDS011;5095;49.796;9.934;2023-04-30T12:42:24;1.40;;;0.80;;
10110;SDS011;5095;49.796;9.934;2023-04-30T12:44:50;1.80;;;0.97;;
10110;SDS011;5095;49.796;9.934;2023-04-30T12:47:16;1.83;;;1.40;;
10110;SDS011;5095;49.796;9.934;2023-04-30T12:49:43;1.00;;;0.90;;
10110;SDS011;5095;49.796;9.934;2023-04-30T12:52:12;1.83;;;0.70;;
10110;SDS011;5095;49.796;9.934;2023-04-30T12:54:39;1.10;;;0.93;;
10110;SDS011;5095;49.796;9.934;2023-04-30T12:59:39;0.70;;;0.70;;
10110;SDS011;5095;49.796;9.934;2023-04-30T13:02:17;4.13;;;0.97;;
10110;SDS011;5095;49.796;9.934;2023-04-30T13:04:43;1.57;;;0.90;;
10110;SDS011;5095;49.796;9.934;2023-04-30T13:07:09;1.43;;;0.83;;
10110;SDS011;5095;49.796;9.934;2023-04-30T13:09:36;2.00;;;1.47;;
10110;SDS011;5095;49.796;9.934;2023-04-30T13:12:02;0.77;;;0.77;;
10110;SDS011;5095;49.796;9.934;2023-04-30T13:14:29;0.70;;;0.70;;
10110;SDS011;5095;49.796;9.934;2023-04-30T13:16:55;0.90;;;0.90;;
10110;SDS011;5095;49.796;9.934;2023-04-30T13:22:09;0.80;;;0.80;;
10110;SDS011;5095;49.796;9.934;2023-04-30T13:24:35;0.60;;;0.60;;
10110;SDS011;5095;49.796;9.934;2023-04-30T13:27:01;0.90;;;0.60;;
10110;SDS011;5095;49.796;9.934;2023-04-30T13:29:28;0.80;;;0.80;;
10110;SDS011;5095;49.796;9.934;2023-04-30T13:31:54;0.90;;;0.60;;
10110;SDS011;5095;49.796;9.934;2023-04-30T13:34:20;0.80;;;0.70;;
10110;SDS011;5095;49.796;9.934;2023-04-30T13:36:46;0.60;;;0.60;;
10110;SDS011;5095;49.796;9.934;2023-04-30T13:39:12;1.87;;;0.83;;
10110;SDS011;5095;49.796;9.934;2023-04-30T13:41:38;1.30;;;0.90;;
10110;SDS011;5095;49.796;9.934;2023-04-30T13:44:04;0.50;;;0.50;;
10110;SDS011;5095;49.796;9.934;2023-04-30T13:46:30;0.60;;;0.60;;
10110;SDS011;5095;49.796;9.934;2023-04-30T13:48:56;0.87;;;0.60;;
10110;SDS011;5095;49.796;9.934;2023-04-30T13:51:22;2.10;;;0.83;;
10110;SDS011;5095;49.796;9.934;2023-04-30T13:53:49;1.23;;;0.80;;
10110;SDS011;5095;49.796;9.934;2023-04-30T13:56:15;0.73;;;0.73;;
10110;SDS011;5095;49.796;9.934;2023-04-30T13:58:41;1.10;;;0.70;;
10110;SDS011;5095;49.796;9.934;2023-04-30T14:01:07;0.87;;;0.87;;
10110;SDS011;5095;49.796;9.934;2023-04-30T14:03:34;0.77;;;0.77;;
10110;SDS011;5095;49.796;9.934;2023-04-30T14:06:00;0.60;;;0.60;;
10110;SDS011;5095;49.796;9.934;2023-04-30T14:08:26;0.53;;;0.53;;
10110;SDS011;5095;49.796;9.934;2023-04-30T14:10:52;0.57;;;0.57;;
10110;SDS011;5095;49.796;9.934;2023-04-30T14:13:18;0.67;;;0.60;;
10110;SDS011;5095;49.796;9.934;2023-04-30T14:15:44;0.83;;;0.80;;
10110;SDS011;5095;49.796;9.934;2023-04-30T14:18:11;1.17;;;0.90;;
10110;SDS011;5095;49.796;9.934;2023-04-30T14:20:38;3.57;;;0.80;;
10110;SDS011;5095;49.796;9.934;2023-04-30T14:23:04;0.90;;;0.60;;
10110;SDS011;5095;49.796;9.934;2023-04-30T14:25:30;0.70;;;0.70;;
10110;SDS011;5095;49.796;9.934;2023-04-30T14:27:56;1.60;;;0.60;;
10110;SDS011;5095;49.796;9.934;2023-04-30T14:30:22;4.67;;;0.90;;
10110;SDS011;5095;49.796;9.934;2023-04-30T14:32:48;0.60;;;0.60;;
10110;SDS011;5095;49.796;9.934;2023-04-30T14:35:14;1.83;;;0.87;;
10110;SDS011;5095;49.796;9.934;2023-04-30T14:37:41;2.97;;;1.03;;
10110;SDS011;5095;49.796;9.934;2023-04-30T14:40:07;1.83;;;0.50;;
10110;SDS011;5095;49.796;9.934;2023-04-30T14:42:33;0.70;;;0.60;;
10110;SDS011;5095;49.796;9.934;2023-04-30T14:44:59;0.60;;;0.57;;
10110;SDS011;5095;49.796;9.934;2023-04-30T14:47:25;0.60;;;0.60;;
10110;SDS011;5095;49.796;9.934;2023-04-30T14:49:52;1.50;;;0.80;;
10110;SDS011;5095;49.796;9.934;2023-04-30T14:52:18;1.10;;;1.00;;
10110;SDS011;5095;49.796;9.934;2023-04-30T14:54:44;1.30;;;0.73;;
10110;SDS011;5095;49.796;9.934;2023-04-30T14:57:10;0.80;;;0.70;;
10110;SDS011;5095;49.796;9.934;2023-04-30T14:59:36;2.23;;;0.97;;
10110;SDS011;5095;49.796;9.934;2023-04-30T15:02:04;2.03;;;0.60;;
10110;SDS011;5095;49.796;9.934;2023-04-30T15:04:30;0.60;;;0.60;;
10110;SDS011;5095;49.796;9.934;2023-04-30T15:06:56;0.57;;;0.50;;
10110;SDS011;5095;49.796;9.934;2023-04-30T15:09:22;2.20;;;0.50;;
10110;SDS011;5095;49.796;9.934;2023-04-30T15:11:48;0.95;;;0.63;;
10110;SDS011;5095;49.796;9.934;2023-04-30T15:14:14;1.13;;;0.40;;
10110;SDS011;5095;49.796;9.934;2023-04-30T15:16:41;0.50;;;0.40;;
10110;SDS011;5095;49.796;9.934;2023-04-30T15:19:07;0.82;;;0.70;;
10110;SDS011;5095;49.796;9.934;2023-04-30T15:21:33;1.35;;;0.50;;
10110;SDS011;5095;49.796;9.934;2023-04-30T15:23:59;0.40;;;0.40;;
10110;SDS011;5095;49.796;9.934;2023-04-30T15:26:25;1.92;;;0.45;;